createdAt,value
2023-03-17T00:00:19.630Z,49.68
2023-03-17T00:05:25.192Z,50.09
2023-03-17T00:10:27.545Z,49.78
2023-03-17T00:15:28.532Z,50.19
2023-03-17T00:20:33.257Z,49.49
2023-03-17T00:25:35.726Z,50.02
2023-03-17T00:30:36.532Z,49.75
2023-03-17T00:35:40.327Z,49.99
2023-03-17T00:40:41.085Z,50.53
2023-03-17T00:45:42.601Z,49.96
2023-03-17T00:50:45.706Z,50.81
2023-03-17T00:55:47.895Z,50.32
2023-03-17T01:00:48.600Z,50.65
2023-03-17T01:05:52.171Z,50.82
2023-03-17T01:10:52.986Z,50.61
2023-03-17T01:15:54.114Z,50.26
2023-03-17T01:20:56.171Z,50.51
2023-03-17T01:25:57.353Z,50.26
2023-03-17T01:30:58.060Z,49.85
2023-03-17T01:36:00.362Z,49.51
2023-03-17T01:41:01.542Z,49.43
2023-03-17T01:46:25.784Z,49.29
2023-03-17T01:51:33.147Z,49.52
2023-03-17T01:56:35.193Z,49.81
2023-03-17T02:01:40.831Z,49.20
2023-03-17T02:06:56.910Z,48.61
2023-03-17T02:12:01.390Z,48.12
2023-03-17T02:17:02.631Z,48.99
2023-03-17T02:22:04.709Z,47.96
2023-03-17T02:27:09.770Z,47.95
2023-03-17T02:32:10.969Z,47.48
2023-03-17T02:37:13.128Z,47.55
2023-03-17T02:42:14.570Z,47.00
2023-03-17T02:47:15.692Z,47.11
2023-03-17T02:52:17.759Z,46.65
2023-03-17T02:57:18.439Z,46.40
2023-03-17T03:02:19.191Z,47.60
2023-03-17T03:07:21.271Z,47.03
2023-03-17T03:12:22.016Z,46.81
2023-03-17T03:17:23.090Z,46.70
2023-03-17T03:22:25.417Z,47.09
2023-03-17T03:27:26.133Z,46.69
2023-03-17T03:32:27.595Z,46.31
2023-03-17T03:37:29.596Z,47.36
2023-03-17T03:42:30.678Z,46.86
2023-03-17T03:47:31.383Z,47.41
2023-03-17T03:52:33.406Z,47.11
2023-03-17T03:57:34.259Z,47.81
2023-03-17T04:02:35.215Z,47.83
2023-03-17T04:07:37.820Z,48.07
2023-03-17T04:12:38.882Z,47.81
2023-03-17T04:17:40.124Z,47.82
2023-03-17T04:22:42.700Z,47.39
2023-03-17T04:27:43.844Z,47.74
2023-03-17T04:32:45.337Z,47.33
2023-03-17T04:37:48.501Z,47.66
2023-03-17T04:42:49.196Z,47.97
2023-03-17T04:47:49.849Z,48.56
2023-03-17T04:52:52.035Z,48.45
2023-03-17T04:57:52.697Z,48.52
2023-03-17T05:02:53.424Z,49.04
2023-03-17T05:07:55.409Z,49.16
2023-03-17T05:12:56.154Z,49.96
2023-03-17T05:17:56.812Z,50.87
2023-03-17T05:22:58.806Z,49.85
2023-03-17T05:27:59.757Z,49.35
2023-03-17T05:33:00.800Z,49.29
2023-03-17T05:38:02.833Z,49.28
2023-03-17T05:43:03.976Z,49.92
2023-03-17T05:48:05.128Z,49.61
2023-03-17T05:53:07.374Z,49.39
2023-03-17T05:58:08.073Z,48.84
2023-03-17T06:03:08.792Z,49.51
2023-03-17T06:08:10.935Z,48.74
2023-03-17T06:13:12.802Z,48.90
2023-03-17T06:18:13.503Z,49.25
2023-03-17T06:23:15.955Z,48.68
2023-03-17T06:28:16.952Z,49.38
2023-03-17T06:33:19.105Z,49.21
2023-03-17T06:38:21.823Z,48.85
2023-03-17T06:43:24.736Z,48.30
2023-03-17T06:48:25.423Z,47.82
2023-03-17T06:53:27.582Z,46.61
2023-03-17T06:58:28.290Z,45.81
2023-03-17T07:03:31.125Z,46.53
2023-03-17T07:08:34.124Z,45.69
2023-03-17T07:13:37.330Z,45.18
2023-03-17T07:18:39.444Z,45.24
2023-03-17T07:23:41.435Z,43.73
2023-03-17T07:28:42.099Z,43.65
2023-03-17T07:33:42.915Z,43.55
2023-03-17T07:38:44.996Z,43.15
2023-03-17T07:43:46.000Z,41.46
2023-03-17T07:48:46.741Z,42.23
2023-03-17T07:53:50.129Z,43.41
2023-03-17T07:58:51.391Z,42.65
2023-03-17T08:03:52.148Z,43.17
2023-03-17T08:08:54.625Z,42.84
2023-03-17T08:13:55.641Z,42.74
2023-03-17T08:18:57.223Z,42.50
2023-03-17T08:23:59.307Z,42.06
2023-03-17T08:29:01.125Z,41.41
2023-03-17T08:34:03.275Z,40.60
2023-03-17T08:39:06.597Z,40.44
2023-03-17T08:44:08.896Z,40.11
2023-03-17T08:49:10.344Z,40.65
2023-03-17T08:54:12.840Z,40.08
2023-03-17T08:59:13.911Z,40.68
2023-03-17T09:04:15.436Z,40.24
2023-03-17T09:09:17.620Z,40.21
2023-03-17T09:14:18.993Z,41.19
2023-03-17T09:19:19.740Z,38.78
2023-03-17T09:24:21.780Z,38.32
2023-03-17T09:29:22.699Z,38.35
2023-03-17T09:34:25.138Z,38.64
2023-03-17T09:39:27.548Z,36.96
2023-03-17T09:44:56.881Z,36.29
2023-03-17T09:50:01.403Z,36.26
2023-03-17T09:55:07.403Z,35.40
2023-03-17T10:00:16.197Z,36.19
2023-03-17T10:05:21.881Z,36.34
2023-03-17T10:10:38.408Z,35.55
2023-03-17T10:15:46.840Z,35.21
2023-03-17T10:20:53.263Z,36.06
2023-03-17T10:25:57.497Z,35.38
2023-03-17T10:31:02.980Z,34.73
2023-03-17T10:36:09.675Z,34.34
2023-03-17T10:41:15.546Z,34.48
2023-03-17T10:46:22.205Z,35.14
2023-03-17T10:51:31.713Z,34.71
2023-03-17T10:56:37.159Z,34.83
2023-03-17T11:01:40.391Z,33.35
2023-03-17T11:06:44.155Z,34.46
2023-03-17T11:11:47.996Z,34.03
2023-03-17T11:16:54.400Z,34.26
2023-03-17T11:22:04.958Z,32.55
2023-03-17T11:27:17.990Z,32.59
2023-03-17T11:32:28.658Z,32.03
2023-03-17T11:37:49.556Z,32.29
2023-03-17T11:43:03.573Z,33.03
2023-03-17T11:48:22.366Z,31.92
2023-03-17T11:53:46.705Z,30.63
2023-03-17T11:58:54.506Z,31.25
2023-03-17T12:04:13.953Z,31.04
2023-03-17T12:09:25.980Z,31.67
2023-03-17T12:14:32.864Z,31.18
2023-03-17T12:19:40.569Z,31.39
2023-03-17T12:24:45.730Z,30.22
2023-03-17T12:29:54.137Z,31.01
2023-03-17T12:34:58.146Z,30.65
2023-03-17T12:40:02.083Z,30.60
2023-03-17T12:45:32.562Z,30.96
2023-03-17T12:50:50.067Z,30.27
2023-03-17T12:55:53.210Z,30.11
2023-03-17T13:01:07.164Z,30.61
2023-03-17T13:06:17.599Z,29.68
2023-03-17T13:11:27.851Z,30.16
2023-03-17T13:16:33.357Z,29.87
2023-03-17T13:21:36.373Z,30.37
2023-03-17T13:26:55.675Z,30.21
2023-03-17T13:32:31.789Z,31.17
2023-03-17T13:37:45.322Z,30.19
2023-03-17T13:42:58.257Z,31.26
2023-03-17T13:48:42.349Z,30.74
2023-03-17T13:53:47.882Z,31.31
2023-03-17T13:58:57.632Z,30.35
2023-03-17T14:04:04.189Z,31.03
2023-03-17T14:09:20.623Z,30.61
2023-03-17T14:14:32.888Z,31.98
2023-03-17T14:19:39.023Z,31.26
2023-03-17T14:24:40.969Z,30.95
2023-03-17T14:29:42.086Z,30.95
2023-03-17T14:34:49.101Z,31.33
2023-03-17T14:39:52.246Z,31.35
2023-03-17T14:45:01.824Z,32.49
2023-03-17T14:50:04.879Z,31.58
2023-03-17T14:55:08.271Z,31.65
2023-03-17T15:00:32.899Z,29.93
2023-03-17T15:05:41.009Z,30.17
2023-03-17T15:10:43.941Z,32.78
2023-03-17T15:15:44.886Z,33.81
2023-03-17T15:20:47.230Z,33.64
2023-03-17T15:25:55.596Z,33.91
2023-03-17T15:31:12.663Z,33.95
2023-03-17T15:36:33.548Z,33.44
2023-03-17T15:41:34.414Z,34.00
2023-03-17T15:46:35.323Z,33.36
2023-03-17T15:51:37.466Z,34.35
2023-03-17T15:56:39.698Z,34.18
2023-03-17T16:01:42.005Z,35.08
2023-03-17T16:06:44.045Z,35.50
2023-03-17T16:11:45.184Z,35.47
2023-03-17T16:16:46.231Z,35.77
2023-03-17T16:21:49.077Z,35.81
2023-03-17T16:26:50.449Z,36.33
2023-03-17T16:31:52.147Z,36.48
2023-03-17T16:36:54.601Z,36.35
2023-03-17T16:41:55.298Z,37.40
2023-03-17T16:46:56.066Z,38.71
2023-03-17T16:51:58.124Z,39.96
2023-03-17T16:56:58.891Z,39.90
2023-03-17T17:02:01.119Z,40.43
2023-03-17T17:07:03.188Z,40.96
2023-03-17T17:12:03.879Z,41.97
2023-03-17T17:17:05.451Z,42.38
2023-03-17T17:22:07.455Z,42.97
2023-03-17T17:27:08.242Z,42.83
2023-03-17T17:32:09.297Z,43.64
2023-03-17T17:37:12.446Z,43.50
2023-03-17T17:42:13.093Z,43.24
2023-03-17T17:47:14.251Z,43.79
2023-03-17T17:52:16.439Z,43.29
2023-03-17T17:57:17.663Z,43.71
2023-03-17T18:02:18.326Z,45.02
2023-03-17T18:07:20.417Z,43.93
2023-03-17T18:12:21.069Z,46.57
2023-03-17T18:17:22.613Z,43.55
2023-03-17T18:22:24.622Z,44.67
2023-03-17T18:27:25.338Z,43.63
2023-03-17T18:32:27.050Z,43.99
2023-03-17T18:37:29.508Z,44.71
2023-03-17T18:42:30.137Z,43.96
2023-03-17T18:47:30.757Z,44.03
2023-03-17T18:52:34.372Z,44.33
2023-03-17T18:57:35.755Z,44.10
2023-03-17T19:02:36.805Z,44.21
2023-03-17T19:07:40.333Z,44.86
2023-03-17T19:12:42.430Z,44.24
2023-03-17T19:17:43.229Z,44.49
2023-03-17T19:22:45.249Z,44.17
2023-03-17T19:27:46.340Z,44.23
2023-03-17T19:32:47.023Z,44.27
2023-03-17T19:37:49.102Z,43.86
2023-03-17T19:42:49.858Z,43.55
2023-03-17T19:47:50.796Z,43.52
2023-03-17T19:52:53.271Z,43.14
2023-03-17T19:57:54.435Z,43.54
2023-03-17T20:02:55.105Z,43.28
2023-03-17T20:07:57.298Z,43.13
2023-03-17T20:12:58.058Z,43.18
2023-03-17T20:17:58.751Z,42.96
2023-03-17T20:23:00.980Z,42.81
2023-03-17T20:28:01.822Z,42.62
2023-03-17T20:33:02.629Z,42.40
2023-03-17T20:38:04.713Z,43.02
2023-03-17T20:43:05.383Z,43.35
2023-03-17T20:48:09.324Z,42.45
2023-03-17T20:53:11.380Z,42.61
2023-03-17T20:58:13.591Z,42.30
2023-03-17T21:03:14.303Z,41.08
2023-03-17T21:08:16.966Z,40.88
2023-03-17T21:13:17.887Z,41.36
2023-03-17T21:18:18.557Z,40.88
2023-03-17T21:23:20.917Z,40.96
2023-03-17T21:28:21.618Z,41.03
2023-03-17T21:33:22.342Z,40.81
2023-03-17T21:38:24.433Z,40.73
2023-03-17T21:43:25.708Z,40.15
2023-03-17T21:48:27.278Z,40.25
2023-03-17T21:53:30.408Z,40.34
2023-03-17T21:58:31.058Z,40.41
2023-03-17T22:03:32.314Z,40.00
2023-03-17T22:08:34.583Z,40.12
2023-03-17T22:13:35.471Z,39.62
2023-03-17T22:18:36.824Z,39.73
2023-03-17T22:23:41.652Z,40.04
2023-03-17T22:28:43.712Z,40.04
2023-03-17T22:33:45.209Z,39.66
2023-03-17T22:38:47.807Z,39.48
2023-03-17T22:43:49.069Z,39.71
2023-03-17T22:48:50.910Z,39.63
2023-03-17T22:53:53.729Z,40.13
2023-03-17T22:58:54.768Z,40.05
2023-03-17T23:03:55.881Z,39.76
2023-03-17T23:08:57.925Z,40.37
2023-03-17T23:13:58.566Z,39.67
2023-03-17T23:18:59.296Z,40.68
2023-03-17T23:24:01.988Z,40.11
2023-03-17T23:29:02.920Z,40.61
2023-03-17T23:34:04.331Z,40.28
2023-03-17T23:39:07.095Z,40.57
2023-03-17T23:44:09.788Z,40.26
2023-03-17T23:49:10.475Z,41.01
2023-03-17T23:54:12.574Z,40.49
2023-03-17T23:59:13.616Z,40.68
